createdAt,value
2019-05-14T00:00:26.510Z,5.96
2019-05-14T00:01:26.747Z,5.91
2019-05-14T00:03:31.198Z,5.89
2019-05-14T00:04:31.558Z,5.94
2019-05-14T00:06:35.302Z,6.01
2019-05-14T00:07:35.541Z,6.08
2019-05-14T00:09:41.331Z,6.12
2019-05-14T00:10:41.228Z,6.15
2019-05-14T00:12:33.023Z,6.06
2019-05-14T00:13:33.263Z,6.08
2019-05-14T00:15:37.432Z,5.99
2019-05-14T00:16:37.671Z,5.93
2019-05-14T00:18:42.119Z,5.81
2019-05-14T00:19:42.059Z,5.81
2019-05-14T00:21:46.228Z,5.79
2019-05-14T00:22:46.469Z,5.74
2019-05-14T00:24:51.985Z,5.61
2019-05-14T00:25:52.303Z,5.63
2019-05-14T00:27:55.050Z,5.39
2019-05-14T00:28:55.287Z,5.31
2019-05-14T00:30:59.456Z,5.33
2019-05-14T00:32:01.759Z,5.35
2019-05-14T00:34:03.854Z,5.31
2019-05-14T00:35:04.093Z,5.33
2019-05-14T00:37:08.264Z,5.31
2019-05-14T00:38:08.502Z,5.30
2019-05-14T00:40:12.670Z,5.38
2019-05-14T00:41:12.909Z,5.49
2019-05-14T00:43:17.055Z,5.43
2019-05-14T00:44:17.294Z,5.51
2019-05-14T00:46:21.470Z,5.48
2019-05-14T00:47:21.860Z,5.40
2019-05-14T00:49:25.852Z,5.58
2019-05-14T00:50:26.090Z,5.53
2019-05-14T00:52:19.190Z,5.58
2019-05-14T00:53:21.321Z,5.53
2019-05-14T00:55:23.605Z,5.39
2019-05-14T00:56:23.836Z,5.25
2019-05-14T00:58:27.986Z,5.28
2019-05-14T00:59:28.225Z,5.28
2019-05-14T01:01:32.392Z,5.30
2019-05-14T01:02:32.631Z,5.22
2019-05-14T01:04:36.778Z,5.21
2019-05-14T01:05:37.015Z,5.27
2019-05-14T01:07:42.337Z,5.31
2019-05-14T01:08:41.537Z,5.24
2019-05-14T01:10:45.595Z,5.25
2019-05-14T01:11:45.833Z,5.35
2019-05-14T01:13:52.065Z,5.35
2019-05-14T01:14:52.854Z,5.31
2019-05-14T01:16:54.382Z,5.27
2019-05-14T01:17:54.617Z,5.20
2019-05-14T01:19:58.763Z,5.18
2019-05-14T01:21:00.882Z,5.18
2019-05-14T01:22:52.103Z,5.21
2019-05-14T01:23:52.339Z,5.12
2019-05-14T01:25:56.512Z,5.22
2019-05-14T01:26:56.749Z,5.31
2019-05-14T01:29:01.437Z,5.22
2019-05-14T01:30:02.073Z,5.07
2019-05-14T01:32:05.304Z,5.06
2019-05-14T01:33:05.542Z,4.89
2019-05-14T01:35:11.829Z,4.88
2019-05-14T01:36:12.203Z,4.96
2019-05-14T01:38:14.095Z,4.89
2019-05-14T01:39:14.333Z,4.91
2019-05-14T01:41:18.510Z,4.75
2019-05-14T01:42:18.749Z,4.63
2019-05-14T01:44:22.893Z,4.62
2019-05-14T01:45:27.954Z,4.60
2019-05-14T01:47:27.303Z,4.47
2019-05-14T01:48:27.540Z,4.51
2019-05-14T01:50:32.269Z,4.50
2019-05-14T01:51:31.921Z,4.51
2019-05-14T01:53:36.099Z,4.33
2019-05-14T01:54:36.338Z,4.41
2019-05-14T01:56:42.355Z,4.42
2019-05-14T01:57:42.483Z,4.45
2019-05-14T01:59:44.890Z,4.30
2019-05-14T02:00:45.137Z,4.34
2019-05-14T02:02:38.236Z,4.32
2019-05-14T02:03:38.473Z,4.26
2019-05-14T02:05:42.621Z,4.29
2019-05-14T02:06:42.859Z,4.20
2019-05-14T02:08:47.028Z,4.26
2019-05-14T02:09:47.268Z,4.33
2019-05-14T02:11:51.946Z,4.44
2019-05-14T02:12:51.763Z,4.50
2019-05-14T02:14:55.828Z,4.44
2019-05-14T02:15:56.066Z,4.36
2019-05-14T02:18:02.311Z,4.41
2019-05-14T02:19:01.349Z,4.44
2019-05-14T02:21:04.633Z,4.41
2019-05-14T02:22:04.871Z,4.42
2019-05-14T02:24:11.197Z,4.41
2019-05-14T02:25:11.465Z,4.40
2019-05-14T02:27:13.455Z,4.36
2019-05-14T02:28:13.696Z,4.44
2019-05-14T02:30:20.259Z,4.44
2019-05-14T02:31:20.166Z,4.41
2019-05-14T02:33:22.249Z,4.32
2019-05-14T02:34:22.489Z,4.29
2019-05-14T02:36:26.636Z,4.32
2019-05-14T02:37:29.865Z,4.29
2019-05-14T02:39:31.044Z,4.29
2019-05-14T02:40:31.288Z,4.26
2019-05-14T02:42:24.361Z,4.18
2019-05-14T02:43:24.599Z,4.15
2019-05-14T02:45:30.243Z,3.84
2019-05-14T02:46:29.752Z,3.83
2019-05-14T02:48:33.174Z,3.75
2019-05-14T02:49:33.416Z,3.65
2019-05-14T02:51:39.134Z,3.48
2019-05-14T02:52:40.337Z,3.40
2019-05-14T02:54:41.964Z,3.29
2019-05-14T02:55:42.203Z,3.42
2019-05-14T02:57:46.386Z,3.26
2019-05-14T02:58:49.633Z,3.24
2019-05-14T03:00:50.773Z,3.28
2019-05-14T03:01:51.008Z,3.11
2019-05-14T03:03:55.176Z,3.08
2019-05-14T03:04:55.419Z,3.05
2019-05-14T03:06:59.561Z,3.05
2019-05-14T03:08:00.215Z,2.93
2019-05-14T03:10:03.971Z,2.92
2019-05-14T03:11:04.207Z,2.82
2019-05-14T03:13:09.607Z,2.81
2019-05-14T03:14:09.125Z,2.77
2019-05-14T03:16:26.591Z,2.72
2019-05-14T03:17:13.018Z,2.64
2019-05-14T03:19:19.658Z,2.66
2019-05-14T03:20:19.603Z,2.60
2019-05-14T03:22:10.626Z,2.48
2019-05-14T03:23:18.087Z,2.60
2019-05-14T03:25:14.907Z,2.56
2019-05-14T03:26:15.145Z,2.63
2019-05-14T03:28:20.017Z,2.57
2019-05-14T03:29:19.877Z,2.57
2019-05-14T03:31:23.713Z,2.59
2019-05-14T03:32:23.938Z,2.53
2019-05-14T03:34:33.019Z,2.49
2019-05-14T03:35:40.771Z,2.45
2019-05-14T03:37:32.498Z,2.45
2019-05-14T03:38:32.736Z,2.34
2019-05-14T03:40:39.736Z,2.36
2019-05-14T03:41:39.637Z,2.36
2019-05-14T03:43:41.327Z,2.41
2019-05-14T03:44:41.563Z,2.41
2019-05-14T03:46:54.844Z,2.39
2019-05-14T03:47:45.950Z,2.28
2019-05-14T03:49:50.150Z,2.24
2019-05-14T03:50:50.353Z,2.18
2019-05-14T03:52:43.560Z,2.23
2019-05-14T03:53:56.999Z,2.23
2019-05-14T03:55:50.582Z,2.24
2019-05-14T03:56:49.602Z,2.16
2019-05-14T03:58:52.350Z,2.18
2019-05-14T03:59:52.587Z,2.16
2019-05-14T04:01:59.630Z,2.30
2019-05-14T04:03:00.211Z,2.34
2019-05-14T04:05:01.155Z,2.35
2019-05-14T04:06:01.395Z,2.38
2019-05-14T04:08:05.539Z,2.38
2019-05-14T04:09:05.778Z,2.43
2019-05-14T04:11:09.950Z,2.41
2019-05-14T04:12:10.475Z,2.45
2019-05-14T04:14:14.336Z,2.49
2019-05-14T04:15:14.573Z,2.59
2019-05-14T04:17:31.753Z,2.67
2019-05-14T04:18:18.977Z,2.79
2019-05-14T04:20:23.147Z,2.75
2019-05-14T04:21:23.386Z,2.71
2019-05-14T04:23:28.999Z,2.84
2019-05-14T04:24:29.509Z,2.75
2019-05-14T04:26:50.669Z,2.93
2019-05-14T04:27:32.182Z,2.96
2019-05-14T04:29:39.399Z,3.08
2019-05-14T04:30:39.713Z,2.95
2019-05-14T04:32:29.724Z,3.05
2019-05-14T04:33:30.643Z,3.14
2019-05-14T04:35:34.064Z,3.17
2019-05-14T04:36:34.301Z,3.39
2019-05-14T04:38:40.866Z,3.40
2019-05-14T04:39:39.574Z,3.43
2019-05-14T04:41:42.849Z,3.66
2019-05-14T04:42:43.087Z,3.58
2019-05-14T04:44:50.001Z,3.62
2019-05-14T04:45:49.674Z,3.68
2019-05-14T04:47:51.633Z,3.90
2019-05-14T04:48:51.874Z,3.88
2019-05-14T04:50:56.037Z,3.94
2019-05-14T04:51:59.292Z,4.08
2019-05-14T04:54:00.418Z,4.20
2019-05-14T04:55:00.656Z,4.18
2019-05-14T04:57:04.820Z,4.24
2019-05-14T04:58:05.056Z,4.24
2019-05-14T05:00:12.292Z,4.26
2019-05-14T05:01:10.069Z,4.16
2019-05-14T05:03:13.604Z,4.20
2019-05-14T05:04:13.839Z,4.23
2019-05-14T05:06:19.196Z,4.29
2019-05-14T05:07:19.199Z,4.24
2019-05-14T05:09:22.384Z,4.44
2019-05-14T05:10:22.622Z,4.51
2019-05-14T05:12:15.715Z,4.59
2019-05-14T05:13:18.313Z,4.55
2019-05-14T05:15:20.117Z,4.72
2019-05-14T05:16:20.350Z,4.72
2019-05-14T05:18:24.498Z,4.86
2019-05-14T05:19:24.727Z,4.91
2019-05-14T05:21:28.892Z,5.09
2019-05-14T05:22:29.129Z,5.12
2019-05-14T05:24:33.274Z,5.28
2019-05-14T05:25:33.509Z,5.22
2019-05-14T05:27:38.309Z,5.38
2019-05-14T05:28:39.143Z,5.39
2019-05-14T05:30:42.077Z,5.45
2019-05-14T05:31:42.313Z,5.57
2019-05-14T05:33:48.739Z,5.65
2019-05-14T05:34:48.270Z,5.67
2019-05-14T05:36:50.864Z,5.79
2019-05-14T05:37:51.102Z,5.82
2019-05-14T05:39:55.265Z,6.03
2019-05-14T05:40:56.786Z,6.06
2019-05-14T05:42:49.110Z,6.19
2019-05-14T05:43:48.835Z,6.22
2019-05-14T05:45:52.984Z,6.33
2019-05-14T05:46:53.216Z,6.25
2019-05-14T05:48:58.692Z,6.43
2019-05-14T05:49:58.101Z,6.56
2019-05-14T05:52:01.766Z,6.73
2019-05-14T05:53:02.001Z,6.84
2019-05-14T05:55:06.170Z,6.69
2019-05-14T05:56:08.964Z,6.79
2019-05-14T05:58:10.574Z,6.89
2019-05-14T05:59:10.811Z,6.94
2019-05-14T06:01:14.959Z,7.34
2019-05-14T06:02:15.206Z,7.42
2019-05-14T06:04:19.366Z,7.60
2019-05-14T06:05:19.600Z,7.80
2019-05-14T06:07:23.743Z,7.98
2019-05-14T06:08:23.988Z,8.01
2019-05-14T06:10:29.079Z,8.28
2019-05-14T06:11:29.026Z,8.30
2019-05-14T06:13:32.557Z,8.44
2019-05-14T06:14:32.798Z,8.48
2019-05-14T06:16:38.430Z,8.61
2019-05-14T06:17:39.127Z,8.79
2019-05-14T06:19:41.348Z,8.91
2019-05-14T06:20:41.589Z,8.87
2019-05-14T06:22:34.664Z,8.94
2019-05-14T06:23:34.899Z,8.87
2019-05-14T06:25:40.061Z,9.14
2019-05-14T06:26:39.303Z,9.14
2019-05-14T06:28:43.502Z,9.38
2019-05-14T06:29:43.741Z,9.36
2019-05-14T06:31:49.519Z,9.46
2019-05-14T06:32:48.758Z,9.53
2019-05-14T06:34:52.288Z,9.53
2019-05-14T06:35:52.524Z,9.58
2019-05-14T06:37:58.266Z,9.54
2019-05-14T06:38:58.596Z,9.71
2019-05-14T06:41:01.100Z,9.84
2019-05-14T06:42:01.322Z,9.74
2019-05-14T06:44:05.492Z,9.84
2019-05-14T06:45:05.727Z,9.84
2019-05-14T06:47:09.881Z,9.93
2019-05-14T06:48:10.120Z,10.07
2019-05-14T06:50:14.309Z,10.17
2019-05-14T06:51:14.539Z,10.17
2019-05-14T06:53:19.430Z,10.27
2019-05-14T06:54:19.670Z,10.25
2019-05-14T06:56:23.102Z,10.17
2019-05-14T06:57:23.338Z,10.27
2019-05-14T06:59:28.745Z,10.32
2019-05-14T07:00:28.516Z,10.47
2019-05-14T07:02:20.832Z,11.49
2019-05-14T07:03:21.073Z,12.29
2019-05-14T07:05:25.261Z,13.52
2019-05-14T07:06:25.500Z,14.12
2019-05-14T07:08:29.655Z,14.91
2019-05-14T07:09:29.894Z,15.02
2019-05-14T07:11:34.060Z,15.38
2019-05-14T07:12:34.299Z,15.94
2019-05-14T07:14:38.983Z,15.82
2019-05-14T07:15:38.847Z,15.38
2019-05-14T07:17:42.879Z,15.09
2019-05-14T07:18:49.262Z,14.96
2019-05-14T07:20:48.517Z,15.25
2019-05-14T07:21:49.171Z,16.01
2019-05-14T07:23:51.700Z,15.75
2019-05-14T07:24:51.942Z,15.90
2019-05-14T07:26:58.584Z,16.46
2019-05-14T07:27:58.285Z,16.21
2019-05-14T07:30:00.536Z,15.94
2019-05-14T07:31:00.771Z,15.94
2019-05-14T07:32:53.881Z,16.31
2019-05-14T07:33:54.125Z,16.53
2019-05-14T07:35:59.319Z,16.50
2019-05-14T07:36:58.867Z,16.52
2019-05-14T07:39:02.719Z,17.01
2019-05-14T07:40:02.955Z,16.75
2019-05-14T07:42:09.892Z,17.04
2019-05-14T07:43:09.056Z,17.44
2019-05-14T07:45:11.556Z,17.74
2019-05-14T07:46:11.788Z,17.22
2019-05-14T07:48:15.980Z,17.84
2019-05-14T07:49:18.298Z,18.15
2019-05-14T07:51:20.404Z,17.74
2019-05-14T07:52:20.663Z,17.68
2019-05-14T07:54:24.805Z,17.78
2019-05-14T07:55:25.050Z,17.44
2019-05-14T07:57:29.247Z,17.36
2019-05-14T07:58:29.480Z,17.07
2019-05-14T08:00:33.646Z,17.00
2019-05-14T08:01:33.889Z,17.31
2019-05-14T08:03:38.394Z,17.44
2019-05-14T08:04:38.351Z,17.52
2019-05-14T08:06:42.511Z,17.04
2019-05-14T08:07:42.756Z,17.22
2019-05-14T08:09:48.076Z,17.71
2019-05-14T08:10:48.655Z,17.64
2019-05-14T08:12:40.282Z,16.09
2019-05-14T08:13:42.599Z,15.72
2019-05-14T08:15:44.688Z,16.86
2019-05-14T08:16:44.936Z,17.15
2019-05-14T08:18:49.119Z,15.31
2019-05-14T08:19:49.412Z,15.09
2019-05-14T08:21:53.546Z,15.09
2019-05-14T08:22:53.792Z,15.96
2019-05-14T08:24:58.169Z,14.29
2019-05-14T08:25:58.695Z,14.02
2019-05-14T08:28:02.395Z,15.50
2019-05-14T08:29:02.638Z,15.83
2019-05-14T08:31:09.144Z,17.51
2019-05-14T08:32:08.829Z,18.18
2019-05-14T08:34:11.230Z,18.42
2019-05-14T08:35:11.472Z,18.14
2019-05-14T08:37:15.656Z,18.54
2019-05-14T08:38:18.315Z,18.45
2019-05-14T08:40:20.979Z,18.99
2019-05-14T08:41:20.309Z,18.54
2019-05-14T08:43:24.496Z,18.51
2019-05-14T08:44:24.740Z,18.15
2019-05-14T08:46:28.907Z,17.97
2019-05-14T08:47:29.326Z,18.47
2019-05-14T08:49:42.585Z,18.26
2019-05-14T08:50:33.588Z,18.51
2019-05-14T08:52:28.763Z,18.12
2019-05-14T08:53:28.815Z,18.12
2019-05-14T08:55:31.119Z,17.66
2019-05-14T08:56:31.368Z,17.04
2019-05-14T08:58:38.276Z,17.90
2019-05-14T08:59:35.813Z,17.72
2019-05-14T09:01:56.910Z,18.33
2019-05-14T09:02:40.230Z,17.92
2019-05-14T09:04:44.462Z,18.20
2019-05-14T09:05:44.661Z,16.75
2019-05-14T09:07:49.179Z,15.21
2019-05-14T09:08:49.864Z,15.54
2019-05-14T09:10:53.257Z,15.92
2019-05-14T09:11:53.505Z,16.00
2019-05-14T09:13:59.445Z,17.16
2019-05-14T09:14:58.904Z,18.02
2019-05-14T09:17:02.106Z,18.67
2019-05-14T09:18:03.606Z,18.88
2019-05-14T09:20:08.404Z,18.94
2019-05-14T09:21:08.708Z,18.30
2019-05-14T09:23:10.974Z,19.26
2019-05-14T09:24:11.225Z,19.58
2019-05-14T09:26:15.390Z,19.92
2019-05-14T09:27:15.633Z,18.23
2019-05-14T09:29:25.838Z,18.55
2019-05-14T09:30:20.069Z,19.63
2019-05-14T09:32:13.166Z,18.87
2019-05-14T09:33:13.410Z,17.36
2019-05-14T09:35:18.859Z,17.71
2019-05-14T09:36:22.658Z,18.44
2019-05-14T09:38:22.046Z,19.50
2019-05-14T09:39:22.296Z,19.02
2019-05-14T09:41:30.155Z,19.46
2019-05-14T09:42:28.634Z,20.03
2019-05-14T09:44:30.906Z,20.76
2019-05-14T09:45:31.155Z,20.97
2019-05-14T09:47:35.350Z,19.58
2019-05-14T09:48:37.824Z,19.22
2019-05-14T09:50:39.776Z,18.95
2019-05-14T09:51:40.031Z,19.73
2019-05-14T09:53:44.236Z,19.86
2019-05-14T09:54:44.486Z,19.84
2019-05-14T09:56:48.686Z,20.26
2019-05-14T09:57:49.188Z,20.13
2019-05-14T09:59:53.093Z,19.50
2019-05-14T10:00:53.342Z,19.36
2019-05-14T10:02:49.336Z,19.04
2019-05-14T10:03:49.358Z,19.14
2019-05-14T10:05:50.879Z,19.11
2019-05-14T10:06:51.135Z,18.30
2019-05-14T10:08:55.329Z,19.84
2019-05-14T10:09:55.576Z,19.69
2019-05-14T10:11:59.750Z,17.04
2019-05-14T10:13:01.596Z,16.15
2019-05-14T10:15:04.190Z,17.38
2019-05-14T10:16:04.441Z,17.66
2019-05-14T10:18:11.756Z,17.86
2019-05-14T10:19:08.883Z,18.60
2019-05-14T10:21:13.054Z,18.82
2019-05-14T10:22:13.306Z,19.81
2019-05-14T10:24:18.573Z,19.96
2019-05-14T10:25:18.218Z,20.26
2019-05-14T10:27:21.916Z,20.52
2019-05-14T10:28:22.164Z,20.80
2019-05-14T10:30:28.457Z,20.91
2019-05-14T10:31:28.478Z,20.57
2019-05-14T10:33:30.802Z,20.13
2019-05-14T10:34:31.052Z,19.96
2019-05-14T10:36:35.231Z,17.58
2019-05-14T10:37:35.479Z,18.12
2019-05-14T10:39:39.670Z,18.45
2019-05-14T10:40:39.924Z,19.84
2019-05-14T10:42:33.032Z,19.55
2019-05-14T10:43:33.277Z,17.89
2019-05-14T10:45:38.483Z,17.81
2019-05-14T10:46:38.416Z,18.51
2019-05-14T10:48:41.908Z,19.46
2019-05-14T10:49:42.160Z,18.08
2019-05-14T10:51:48.007Z,17.16
2019-05-14T10:52:48.907Z,17.07
2019-05-14T10:54:55.704Z,16.45
2019-05-14T10:55:51.013Z,16.38
2019-05-14T10:57:55.183Z,16.15
2019-05-14T10:58:55.425Z,15.78
2019-05-14T11:00:59.617Z,15.56
2019-05-14T11:01:59.877Z,17.03
2019-05-14T11:04:04.078Z,18.50
2019-05-14T11:05:04.323Z,18.17
2019-05-14T11:07:08.490Z,16.68
2019-05-14T11:08:11.971Z,16.23
2019-05-14T11:10:12.929Z,15.25
2019-05-14T11:11:13.173Z,15.36
2019-05-14T11:13:19.011Z,15.19
2019-05-14T11:14:19.221Z,15.19
2019-05-14T11:16:21.771Z,15.16
2019-05-14T11:17:22.011Z,15.16
2019-05-14T11:19:28.084Z,15.35
2019-05-14T11:20:30.785Z,15.29
2019-05-14T11:22:19.535Z,15.13
2019-05-14T11:23:19.780Z,14.78
2019-05-14T11:25:23.959Z,14.46
2019-05-14T11:26:24.948Z,14.51
2019-05-14T11:28:28.852Z,14.45
2019-05-14T11:29:29.593Z,14.77
2019-05-14T11:31:34.338Z,15.39
2019-05-14T11:32:33.044Z,15.50
2019-05-14T11:34:39.035Z,15.59
2019-05-14T11:35:39.450Z,15.43
2019-05-14T11:37:41.653Z,15.38
2019-05-14T11:38:41.893Z,16.61
2019-05-14T11:40:46.054Z,18.42
2019-05-14T11:41:46.297Z,19.22
2019-05-14T11:43:50.468Z,20.35
2019-05-14T11:44:50.710Z,20.92
2019-05-14T11:46:57.882Z,19.83
2019-05-14T11:47:55.141Z,20.61
2019-05-14T11:49:59.341Z,20.84
2019-05-14T11:50:59.711Z,18.70
2019-05-14T11:52:52.688Z,17.22
2019-05-14T11:53:52.935Z,16.33
2019-05-14T11:55:58.689Z,15.39
2019-05-14T11:56:58.959Z,15.50
2019-05-14T11:59:01.557Z,16.93
2019-05-14T12:00:01.788Z,17.70
2019-05-14T12:02:05.975Z,19.62
2019-05-14T12:03:06.219Z,20.01
2019-05-14T12:05:10.384Z,20.03
2019-05-14T12:06:10.636Z,20.21
2019-05-14T12:08:14.822Z,20.35
2019-05-14T12:09:15.077Z,20.73
2019-05-14T12:11:19.699Z,20.35
2019-05-14T12:12:19.507Z,19.40
2019-05-14T12:14:23.680Z,19.94
2019-05-14T12:15:23.925Z,20.26
2019-05-14T12:17:29.490Z,21.04
2019-05-14T12:18:29.159Z,21.12
2019-05-14T12:20:32.539Z,21.64
2019-05-14T12:21:32.788Z,21.69
2019-05-14T12:23:39.153Z,20.79
2019-05-14T12:24:38.724Z,19.81
2019-05-14T12:26:41.442Z,18.91
2019-05-14T12:27:41.685Z,18.03
2019-05-14T12:29:49.490Z,15.51
2019-05-14T12:30:48.746Z,16.46
2019-05-14T12:32:39.858Z,17.97
2019-05-14T12:33:39.889Z,19.14
2019-05-14T12:35:43.633Z,19.58
2019-05-14T12:36:43.881Z,18.94
2019-05-14T12:38:48.069Z,17.04
2019-05-14T12:39:48.316Z,16.42
2019-05-14T12:41:52.500Z,15.80
2019-05-14T12:42:52.749Z,15.54
2019-05-14T12:44:58.578Z,14.03
2019-05-14T12:45:59.274Z,13.82
2019-05-14T12:48:02.378Z,13.62
2019-05-14T12:49:02.618Z,13.69
2019-05-14T12:51:08.997Z,14.18
2019-05-14T12:52:21.007Z,14.46
2019-05-14T12:54:11.231Z,17.16
2019-05-14T12:55:11.493Z,17.14
2019-05-14T12:57:18.746Z,18.36
2019-05-14T12:58:16.008Z,18.55
2019-05-14T13:00:20.184Z,18.35
2019-05-14T13:01:20.436Z,17.74
2019-05-14T13:03:24.632Z,16.60
2019-05-14T13:04:24.869Z,16.35
2019-05-14T13:06:29.514Z,16.23
2019-05-14T13:07:29.393Z,15.93
2019-05-14T13:09:33.561Z,15.49
2019-05-14T13:10:33.826Z,15.39
2019-05-14T13:12:29.567Z,14.94
2019-05-14T13:13:29.098Z,14.84
2019-05-14T13:15:31.425Z,14.17
2019-05-14T13:16:31.672Z,14.17
2019-05-14T13:18:38.435Z,15.21
2019-05-14T13:19:38.010Z,15.68
2019-05-14T13:21:40.361Z,17.38
2019-05-14T13:22:46.082Z,18.20
2019-05-14T13:24:44.897Z,19.81
2019-05-14T13:25:45.225Z,19.92
2019-05-14T13:27:49.486Z,19.69
2019-05-14T13:28:50.771Z,20.06
2019-05-14T13:30:53.887Z,19.86
2019-05-14T13:31:54.165Z,19.92
2019-05-14T13:33:59.407Z,20.74
2019-05-14T13:34:59.238Z,20.84
2019-05-14T13:37:02.769Z,19.56
2019-05-14T13:38:03.061Z,18.57
2019-05-14T13:40:09.234Z,18.33
2019-05-14T13:41:08.649Z,18.52
2019-05-14T13:43:14.411Z,16.76
2019-05-14T13:44:23.679Z,17.06
2019-05-14T13:46:18.806Z,16.81
2019-05-14T13:47:18.177Z,16.52
2019-05-14T13:49:20.653Z,15.78
2019-05-14T13:50:20.897Z,15.62
2019-05-14T13:52:13.997Z,15.29
2019-05-14T13:53:14.244Z,14.99
2019-05-14T13:55:19.499Z,14.50
2019-05-14T13:56:19.058Z,14.35
2019-05-14T13:58:22.885Z,14.09
2019-05-14T13:59:23.195Z,14.02
2019-05-14T14:01:29.731Z,14.17
2019-05-14T14:02:31.063Z,14.42
2019-05-14T14:04:31.804Z,15.36
2019-05-14T14:05:32.050Z,16.57
2019-05-14T14:07:39.113Z,16.76
2019-05-14T14:08:41.926Z,16.70
2019-05-14T14:10:45.648Z,16.38
2019-05-14T14:11:41.008Z,16.01
2019-05-14T14:13:45.188Z,15.89
2019-05-14T14:14:45.437Z,15.62
2019-05-14T14:16:49.605Z,15.25
2019-05-14T14:17:49.850Z,15.03
2019-05-14T14:19:54.116Z,14.77
2019-05-14T14:20:54.359Z,14.65
2019-05-14T14:22:49.034Z,14.62
2019-05-14T14:23:49.371Z,14.47
2019-05-14T14:25:54.648Z,14.25
2019-05-14T14:26:52.209Z,14.24
2019-05-14T14:28:56.393Z,13.96
2019-05-14T14:29:58.515Z,14.12
2019-05-14T14:32:00.797Z,14.17
2019-05-14T14:33:01.040Z,14.14
2019-05-14T14:35:05.223Z,14.12
2019-05-14T14:36:05.470Z,14.00
2019-05-14T14:38:09.634Z,13.97
2019-05-14T14:39:09.999Z,14.52
2019-05-14T14:41:14.050Z,15.76
2019-05-14T14:42:14.297Z,16.31
2019-05-14T14:44:19.162Z,17.56
2019-05-14T14:45:21.773Z,18.10
2019-05-14T14:47:22.893Z,19.13
2019-05-14T14:48:23.136Z,19.25
2019-05-14T14:50:28.926Z,19.41
2019-05-14T14:51:28.440Z,18.92
2019-05-14T14:53:51.326Z,17.54
2019-05-14T14:54:31.977Z,16.83
2019-05-14T14:56:37.934Z,15.83
2019-05-14T14:57:43.934Z,15.57
2019-05-14T14:59:40.602Z,15.25
2019-05-14T15:00:40.848Z,15.19
2019-05-14T15:02:33.946Z,15.06
2019-05-14T15:03:34.181Z,14.96
2019-05-14T15:05:39.047Z,14.39
2019-05-14T15:06:39.952Z,14.24
2019-05-14T15:08:42.783Z,13.97
2019-05-14T15:09:43.027Z,13.85
2019-05-14T15:11:48.961Z,13.63
2019-05-14T15:12:49.628Z,13.44
2019-05-14T15:14:51.619Z,13.44
2019-05-14T15:15:51.860Z,13.45
2019-05-14T15:17:56.044Z,13.71
2019-05-14T15:18:58.333Z,13.96
2019-05-14T15:21:00.473Z,13.88
2019-05-14T15:22:00.720Z,13.88
2019-05-14T15:24:13.788Z,13.71
2019-05-14T15:25:05.121Z,13.77
2019-05-14T15:27:15.114Z,13.82
2019-05-14T15:28:09.616Z,13.82
2019-05-14T15:30:13.722Z,13.75
2019-05-14T15:31:13.964Z,13.67
2019-05-14T15:33:18.894Z,13.64
2019-05-14T15:34:18.888Z,13.54
2019-05-14T15:36:22.548Z,13.44
2019-05-14T15:37:22.788Z,13.38
2019-05-14T15:39:29.872Z,13.29
2019-05-14T15:40:28.950Z,13.30
2019-05-14T15:42:20.296Z,13.22
2019-05-14T15:43:20.535Z,13.14
2019-05-14T15:45:24.693Z,13.25
2019-05-14T15:46:24.934Z,13.28
2019-05-14T15:48:29.108Z,13.30
2019-05-14T15:49:29.358Z,13.19
2019-05-14T15:51:33.532Z,13.36
2019-05-14T15:52:33.775Z,13.71
2019-05-14T15:54:46.280Z,13.87
2019-05-14T15:55:38.411Z,13.91
2019-05-14T15:57:42.349Z,13.51
2019-05-14T15:58:42.587Z,13.49
2019-05-14T16:00:46.747Z,13.25
2019-05-14T16:01:46.987Z,13.25
2019-05-14T16:03:51.163Z,13.01
2019-05-14T16:04:51.419Z,13.01
2019-05-14T16:06:55.580Z,13.04
2019-05-14T16:07:55.822Z,12.95
2019-05-14T16:10:00.916Z,13.38
2019-05-14T16:11:00.477Z,13.57
2019-05-14T16:12:53.325Z,13.52
2019-05-14T16:13:53.567Z,13.77
2019-05-14T16:15:57.728Z,13.99
2019-05-14T16:16:57.963Z,13.96
2019-05-14T16:19:02.139Z,13.92
2019-05-14T16:20:02.392Z,13.82
2019-05-14T16:22:09.513Z,13.38
2019-05-14T16:23:10.604Z,13.57
2019-05-14T16:25:10.962Z,13.75
2019-05-14T16:26:11.200Z,13.77
2019-05-14T16:28:15.380Z,13.85
2019-05-14T16:29:15.620Z,13.99
2019-05-14T16:31:19.776Z,13.92
2019-05-14T16:32:20.024Z,13.88
2019-05-14T16:34:24.198Z,14.04
2019-05-14T16:35:24.439Z,14.18
2019-05-14T16:37:28.617Z,14.03
2019-05-14T16:38:28.866Z,14.18
2019-05-14T16:40:33.017Z,14.37
2019-05-14T16:41:33.254Z,14.25
2019-05-14T16:43:39.872Z,13.89
2019-05-14T16:44:39.130Z,13.73
2019-05-14T16:46:41.838Z,13.70
2019-05-14T16:47:42.079Z,13.57
2019-05-14T16:49:48.203Z,13.48
2019-05-14T16:50:48.801Z,13.44
2019-05-14T16:52:42.269Z,13.00
2019-05-14T16:53:39.851Z,12.87
2019-05-14T16:55:44.010Z,12.59
2019-05-14T16:56:44.257Z,12.47
2019-05-14T16:58:48.428Z,12.37
2019-05-14T16:59:49.675Z,12.21
2019-05-14T17:01:52.822Z,12.10
2019-05-14T17:02:53.060Z,12.19
2019-05-14T17:04:59.053Z,12.04
2019-05-14T17:05:58.031Z,11.99
2019-05-14T17:08:01.668Z,12.07
2019-05-14T17:09:01.916Z,11.99
2019-05-14T17:11:08.686Z,12.16
2019-05-14T17:12:08.342Z,12.21
2019-05-14T17:14:10.482Z,12.29
2019-05-14T17:15:10.722Z,12.37
2019-05-14T17:17:14.879Z,12.29
2019-05-14T17:18:15.131Z,12.28
2019-05-14T17:20:20.464Z,12.17
2019-05-14T17:21:19.533Z,12.12
2019-05-14T17:23:23.710Z,12.04
2019-05-14T17:24:23.952Z,11.86
2019-05-14T17:26:28.793Z,11.75
2019-05-14T17:27:28.663Z,11.82
2019-05-14T17:29:32.524Z,11.76
2019-05-14T17:30:32.765Z,11.72
2019-05-14T17:32:25.846Z,11.82
2019-05-14T17:33:26.090Z,11.86
2019-05-14T17:35:30.269Z,12.02
2019-05-14T17:36:30.510Z,12.04
2019-05-14T17:38:34.686Z,12.13
2019-05-14T17:39:34.929Z,12.21
2019-05-14T17:41:42.033Z,12.24
2019-05-14T17:42:39.779Z,12.27
2019-05-14T17:44:43.530Z,12.23
2019-05-14T17:45:43.769Z,12.32
2019-05-14T17:47:49.037Z,12.37
2019-05-14T17:48:48.779Z,12.24
2019-05-14T17:50:52.328Z,12.21
2019-05-14T17:51:52.571Z,12.09
2019-05-14T17:53:58.714Z,12.04
2019-05-14T17:54:57.168Z,11.91
2019-05-14T17:57:01.374Z,11.70
2019-05-14T17:58:01.627Z,11.72
2019-05-14T18:00:05.845Z,11.49
2019-05-14T18:01:08.803Z,11.51
2019-05-14T18:03:10.235Z,11.44
2019-05-14T18:04:10.524Z,11.25
2019-05-14T18:06:14.765Z,11.17
2019-05-14T18:07:15.028Z,11.06
2019-05-14T18:09:19.737Z,11.00
2019-05-14T18:10:19.718Z,10.86
2019-05-14T18:12:12.579Z,10.84
2019-05-14T18:13:12.825Z,10.71
2019-05-14T18:15:16.997Z,10.71
2019-05-14T18:16:19.107Z,10.74
2019-05-14T18:18:21.464Z,10.55
2019-05-14T18:19:21.705Z,10.48
2019-05-14T18:21:28.255Z,10.26
2019-05-14T18:22:28.471Z,10.18
2019-05-14T18:24:30.284Z,10.11
2019-05-14T18:25:30.522Z,10.17
2019-05-14T18:27:34.669Z,10.20
2019-05-14T18:28:34.913Z,10.14
2019-05-14T18:30:39.077Z,10.23
2019-05-14T18:31:44.511Z,10.11
2019-05-14T18:33:43.489Z,10.04
2019-05-14T18:34:43.707Z,10.07
2019-05-14T18:36:48.862Z,10.01
2019-05-14T18:37:48.318Z,9.97
2019-05-14T18:39:52.293Z,9.96
2019-05-14T18:40:52.527Z,10.04
2019-05-14T18:42:47.913Z,9.91
2019-05-14T18:43:45.848Z,9.83
2019-05-14T18:45:50.455Z,9.68
2019-05-14T18:46:50.261Z,9.71
2019-05-14T18:48:54.416Z,9.56
2019-05-14T18:49:54.658Z,9.65
2019-05-14T18:51:59.305Z,9.48
2019-05-14T18:52:59.888Z,9.47
2019-05-14T18:55:03.230Z,9.36
2019-05-14T18:56:16.559Z,9.39
2019-05-14T18:58:08.592Z,9.26
2019-05-14T18:59:08.912Z,9.33
2019-05-14T19:01:12.024Z,9.28
2019-05-14T19:02:12.264Z,9.32
2019-05-14T19:04:18.413Z,9.26
2019-05-14T19:05:18.298Z,9.38
2019-05-14T19:07:20.827Z,9.36
2019-05-14T19:08:21.065Z,9.40
2019-05-14T19:10:25.234Z,9.40
2019-05-14T19:11:27.966Z,9.50
2019-05-14T19:13:29.619Z,9.40
2019-05-14T19:14:29.858Z,9.43
2019-05-14T19:16:34.027Z,9.35
2019-05-14T19:17:34.262Z,9.40
2019-05-14T19:19:38.730Z,9.31
2019-05-14T19:20:39.190Z,9.26
2019-05-14T19:22:31.799Z,9.20
2019-05-14T19:23:32.043Z,9.21
2019-05-14T19:25:36.226Z,8.99
2019-05-14T19:26:37.757Z,8.91
2019-05-14T19:28:40.625Z,8.95
2019-05-14T19:29:40.846Z,8.79
2019-05-14T19:31:45.016Z,8.77
2019-05-14T19:32:45.259Z,8.83
2019-05-14T19:34:50.431Z,8.70
2019-05-14T19:35:50.666Z,8.65
2019-05-14T19:37:54.861Z,8.63
2019-05-14T19:38:55.101Z,8.66
2019-05-14T19:41:00.286Z,8.50
2019-05-14T19:42:00.523Z,8.48
2019-05-14T19:44:04.671Z,8.38
2019-05-14T19:45:04.915Z,8.30
2019-05-14T19:47:09.091Z,8.23
2019-05-14T19:48:09.323Z,8.23
2019-05-14T19:50:13.470Z,8.23
2019-05-14T19:51:13.707Z,8.23
2019-05-14T19:53:17.881Z,8.01
2019-05-14T19:54:19.504Z,7.98
2019-05-14T19:56:22.289Z,7.95